Stoneham, Maine
Current Conditions -  °F | °C
As of 4:54 PM on Monday 26 Jan 2015 (Local Time) from KIZG Reporting Station
Clear Clear  
Wind Chill: 10°   Ceiling: Unl
Heat Index: 17°   Visibility: 10mi
Dew Point: -6°   Wind: 5mph
Humidity: 36%   Direction: 80°E
Pressure: 30.15"   Gusts: NA
Location:  44.24°N, 70.87°W
Report Text: KIZG 262154Z AUTO 08004KT 10SM CLR M08/M21 A3015 RMK AO2 SLP223 T10831211
Loading
Personal Weather Stations






























Interactive Weather Map New forecast layout! Learn more

10-Day Weather Forecast

Advertisements
Track Severe Weather on mobile